Time;durP1;ratioP1;P1;durP2;ratioP2;P2;SDS_P1;SDS_P2;PMS_P1;PMS_P2;Temp;Humidity;BMP_temperature;BMP_pressure;BME280_temperature;BME280_humidity;BME280_pressure;Samples;Min_cycle;Max_cycle;Signal;HPM_P1;HPM_P2
2022/08/20 00:00:18;;;;;;;1.83;0.85;;;;;;;-148.56;100.00;61375.16;4966805;28;20042;-29
2022/08/20 00:02:49;;;;;;;1.05;0.80;;;;;;;-148.56;100.00;61375.16;4959337;28;20069;-30
2022/08/20 00:05:14;;;;;;;;;;;;;;;-148.56;100.00;61375.16;4960115;28;20037;-31
2022/08/20 00:07:40;;;;;;;3.65;0.90;;;;;;;-148.56;100.00;61375.16;4966940;28;19969;-31
2022/08/20 00:10:06;;;;;;;4.22;0.98;;;;;;;-148.56;100.00;61375.16;4963227;28;20030;-30
2022/08/20 00:12:32;;;;;;;0.80;0.73;;;;;;;-148.56;100.00;61375.16;4950605;28;20113;-31
2022/08/20 00:14:57;;;;;;;2.42;0.75;;;;;;;-148.56;100.00;61375.16;4948458;28;20030;-30
2022/08/20 00:17:23;;;;;;;3.53;0.93;;;;;;;-148.56;100.00;61375.16;4949177;28;20065;-28
2022/08/20 00:19:48;;;;;;;3.25;0.70;;;;;;;-148.56;100.00;61375.16;4962340;28;20026;-33
2022/08/20 00:22:13;;;;;;;1.75;0.70;;;;;;;-148.56;100.00;61375.16;4962592;28;20039;-30
2022/08/20 00:24:39;;;;;;;2.15;0.73;;;;;;;-148.56;100.00;61375.16;4959636;28;21093;-32
2022/08/20 00:27:04;;;;;;;1.02;0.88;;;;;;;-148.56;100.00;61375.16;4959358;28;20037;-32
2022/08/20 00:29:30;;;;;;;1.73;0.93;;;;;;;-148.56;100.00;61375.16;4958679;28;20030;-29
2022/08/20 00:31:55;;;;;;;0.98;0.70;;;;;;;-148.56;100.00;61375.16;4954980;28;20038;-31
2022/08/20 00:34:21;;;;;;;3.03;0.90;;;;;;;-148.56;100.00;61375.16;4960458;28;20667;-34
2022/08/20 00:36:46;;;;;;;3.28;0.93;;;;;;;-148.56;100.00;61375.16;4963995;28;20030;-28
2022/08/20 00:39:11;;;;;;;1.30;0.70;;;;;;;-148.56;100.00;61375.16;4960561;28;20035;-32
2022/08/20 00:41:37;;;;;;;1.65;0.77;;;;;;;-148.56;100.00;61375.16;4959795;28;21289;-29
2022/08/20 00:44:04;;;;;;;2.75;0.85;;;;;;;-148.56;100.00;61375.16;4961484;28;20042;-30
2022/08/20 00:46:29;;;;;;;0.88;0.60;;;;;;;-148.56;100.00;61375.16;4969499;28;20848;-28
2022/08/20 00:48:55;;;;;;;1.55;0.80;;;;;;;-148.56;100.00;61375.16;4959275;28;20049;-30
2022/08/20 00:51:40;;;;;;;3.08;0.90;;;;;;;-148.56;100.00;61375.16;4958097;28;20502;-32
2022/08/20 00:54:17;;;;;;;2.03;0.80;;;;;;;-148.56;100.00;61375.16;4960986;28;20057;-31
2022/08/20 00:56:44;;;;;;;4.32;0.80;;;;;;;-148.56;100.00;61375.16;4958047;28;20034;-33
2022/08/20 00:59:13;;;;;;;3.10;1.08;;;;;;;-148.56;100.00;61375.16;4970055;28;20031;-30
2022/08/20 01:01:39;;;;;;;1.05;0.70;;;;;;;-148.56;100.00;61375.16;4961867;28;20113;-30
2022/08/20 01:04:04;;;;;;;0.65;0.60;;;;;;;-148.56;100.00;61375.16;4961625;28;20439;-34
2022/08/20 01:06:30;;;;;;;1.00;0.70;;;;;;;-148.56;100.00;61375.16;4956811;28;20034;-30
2022/08/20 01:08:56;;;;;;;1.40;0.70;;;;;;;-148.56;100.00;61375.16;4957748;28;20030;-30
2022/08/20 01:11:29;;;;;;;1.65;0.80;;;;;;;-148.56;100.00;61375.16;4961580;28;20092;-34
2022/08/20 01:13:56;;;;;;;1.77;0.90;;;;;;;-148.56;100.00;61375.16;4953250;28;20257;-30
2022/08/20 01:16:24;;;;;;;1.10;0.82;;;;;;;-148.56;100.00;61375.16;4961612;28;20040;-30
2022/08/20 01:18:49;;;;;;;1.30;0.70;;;;;;;-148.56;100.00;61375.16;4941810;28;20037;-30
2022/08/20 01:21:15;;;;;;;1.50;0.75;;;;;;;-148.56;100.00;61375.16;4959974;28;20034;-27
2022/08/20 01:23:56;;;;;;;0.93;0.60;;;;;;;-148.56;100.00;61375.16;4942092;28;20533;-30
2022/08/20 01:26:26;;;;;;;0.77;0.70;;;;;;;-148.56;100.00;61375.16;4943514;28;20034;-29
2022/08/20 01:28:55;;;;;;;1.30;0.70;;;;;;;-148.56;100.00;61375.16;4954176;28;20039;-30
2022/08/20 01:31:22;;;;;;;0.98;0.68;;;;;;;-148.56;100.00;61375.16;4963584;28;20072;-33
2022/08/20 01:33:48;;;;;;;2.13;0.80;;;;;;;-148.56;100.00;61375.16;4952411;28;20048;-28
2022/08/20 01:36:14;;;;;;;0.82;0.70;;;;;;;-148.56;100.00;61375.16;4949308;28;20038;-30
2022/08/20 01:38:39;;;;;;;1.15;0.57;;;;;;;-148.56;100.00;61375.16;4959497;28;20041;-26
2022/08/20 01:41:52;;;;;;;0.98;0.73;;;;;;;-148.56;100.00;61375.16;4962053;28;20030;-30
2022/08/20 01:44:19;;;;;;;0.68;0.68;;;;;;;-148.56;100.00;61375.16;4962546;28;20055;-33
2022/08/20 01:46:46;;;;;;;1.42;0.70;;;;;;;-148.56;100.00;61375.16;4960859;28;20949;-33
2022/08/20 01:49:15;;;;;;;1.58;0.80;;;;;;;-148.56;100.00;61375.16;4962715;28;20145;-28
2022/08/20 01:51:40;;;;;;;1.27;0.70;;;;;;;-148.56;100.00;61375.16;4972804;28;20158;-31
2022/08/20 01:54:06;;;;;;;1.20;0.80;;;;;;;-148.56;100.00;61375.16;4959375;28;20573;-28
2022/08/20 01:56:32;;;;;;;2.30;0.70;;;;;;;-148.56;100.00;61375.16;4968223;28;20031;-27
2022/08/20 01:58:59;;;;;;;1.10;0.70;;;;;;;-148.56;100.00;61375.16;4961554;28;20716;-27
2022/08/20 02:01:31;;;;;;;2.10;0.90;;;;;;;-148.56;100.00;61375.16;4967694;28;20846;-28
2022/08/20 02:03:57;;;;;;;0.82;0.60;;;;;;;-148.56;100.00;61375.16;4963566;28;20084;-30
2022/08/20 02:06:24;;;;;;;0.90;0.60;;;;;;;-148.56;100.00;61375.16;4965201;28;21764;-31
2022/08/20 02:08:52;;;;;;;2.00;0.90;;;;;;;-148.56;100.00;61375.16;4968940;28;20093;-30
2022/08/20 02:11:17;;;;;;;1.10;0.77;;;;;;;-148.56;100.00;61375.16;4969502;28;20117;-30
2022/08/20 02:13:42;;;;;;;1.23;0.60;;;;;;;-148.56;100.00;61375.16;4957328;28;20589;-28
2022/08/20 02:16:08;;;;;;;0.65;0.65;;;;;;;-148.56;100.00;61375.16;4963869;28;20038;-30
2022/08/20 02:18:33;;;;;;;0.88;0.65;;;;;;;-148.56;100.00;61375.16;4959124;28;20049;-34
2022/08/20 02:20:59;;;;;;;1.75;0.80;;;;;;;-148.56;100.00;61375.16;4954742;28;20034;-30
2022/08/20 02:23:25;;;;;;;0.98;0.50;;;;;;;-148.56;100.00;61375.16;4964447;28;20026;-29
2022/08/20 02:25:50;;;;;;;2.28;0.77;;;;;;;-148.56;100.00;61375.16;4962897;28;20076;-30
2022/08/20 02:28:16;;;;;;;0.70;0.50;;;;;;;-148.56;100.00;61375.16;4959019;28;20709;-32
2022/08/20 02:30:45;;;;;;;1.55;1.00;;;;;;;-148.56;100.00;61375.16;4954325;28;20042;-28
2022/08/20 02:33:11;;;;;;;1.70;0.73;;;;;;;-148.56;100.00;61375.16;4960553;28;20031;-32
2022/08/20 02:35:38;;;;;;;11.32;0.90;;;;;;;-148.56;100.00;61375.16;4954071;28;20060;-31
2022/08/20 02:38:03;;;;;;;1.48;0.80;;;;;;;-148.56;100.00;61375.16;4955591;28;20068;-32
2022/08/20 02:40:30;;;;;;;2.50;0.80;;;;;;;-148.56;100.00;61375.16;4961954;28;20026;-33
2022/08/20 02:42:55;;;;;;;1.00;0.70;;;;;;;-148.56;100.00;61375.16;4961198;28;20065;-31
2022/08/20 02:45:21;;;;;;;1.08;0.77;;;;;;;-148.56;100.00;61375.16;4960624;28;20808;-26
2022/08/20 02:47:47;;;;;;;0.70;0.60;;;;;;;-148.56;100.00;61375.16;4964135;28;20030;-31
2022/08/20 02:50:15;;;;;;;1.75;0.82;;;;;;;-148.56;100.00;61375.16;4970952;28;20097;-34
2022/08/20 02:52:41;;;;;;;0.80;0.60;;;;;;;-148.56;100.00;61375.16;4963718;28;20117;-30
2022/08/20 02:55:06;;;;;;;1.00;0.70;;;;;;;-148.56;100.00;61375.16;4960973;28;20656;-29
2022/08/20 02:57:32;;;;;;;1.25;0.70;;;;;;;-148.56;100.00;61375.16;4961509;28;20105;-32
2022/08/20 02:59:57;;;;;;;0.85;0.70;;;;;;;-148.56;100.00;61375.16;4967893;28;20049;-29
2022/08/20 03:02:23;;;;;;;3.55;0.85;;;;;;;-148.56;100.00;61375.16;4961670;28;20916;-33
2022/08/20 03:04:48;;;;;;;1.30;0.88;;;;;;;-148.56;100.00;61375.16;4968697;28;20034;-33
2022/08/20 03:07:13;;;;;;;2.33;0.80;;;;;;;-148.56;100.00;61375.16;4960324;28;20062;-29
2022/08/20 03:09:39;;;;;;;1.08;0.68;;;;;;;-148.56;100.00;61375.16;4951480;28;20037;-33
2022/08/20 03:12:06;;;;;;;1.05;0.70;;;;;;;-148.56;100.00;61375.16;4962803;28;20525;-30
2022/08/20 03:14:32;;;;;;;0.88;0.70;;;;;;;-148.56;100.00;61375.16;4956858;28;20121;-28
2022/08/20 03:16:58;;;;;;;5.07;0.85;;;;;;;-148.56;100.00;61375.16;4962354;28;20048;-31
2022/08/20 03:19:24;;;;;;;0.77;0.77;;;;;;;-148.56;100.00;61375.16;4968387;28;20128;-29
2022/08/20 03:21:49;;;;;;;1.02;0.68;;;;;;;-148.56;100.00;61375.16;4962805;28;20493;-32
2022/08/20 03:24:14;;;;;;;2.35;0.73;;;;;;;-148.56;100.00;61375.16;4963744;28;20030;-31
2022/08/20 03:26:40;;;;;;;2.05;0.85;;;;;;;-148.56;100.00;61375.16;4965531;28;20034;-29
2022/08/20 03:29:05;;;;;;;3.65;1.10;;;;;;;-148.56;100.00;61375.16;4968787;28;20152;-32
2022/08/20 03:31:31;;;;;;;0.90;0.60;;;;;;;-148.56;100.00;61375.16;4962268;28;20037;-27
2022/08/20 03:33:56;;;;;;;1.65;0.82;;;;;;;-148.56;100.00;61375.16;4962391;28;20034;-27
2022/08/20 03:36:22;;;;;;;1.33;1.15;;;;;;;-148.56;100.00;61375.16;4964766;28;20030;-33
2022/08/20 03:38:48;;;;;;;1.85;0.90;;;;;;;-148.56;100.00;61375.16;4959352;28;20033;-31
2022/08/20 03:41:13;;;;;;;0.80;0.80;;;;;;;-148.56;100.00;61375.16;4954655;28;20142;-31
2022/08/20 03:43:40;;;;;;;1.25;0.70;;;;;;;-148.56;100.00;61375.16;4964476;28;20030;-29
2022/08/20 03:46:06;;;;;;;3.03;0.98;;;;;;;-148.56;100.00;61375.16;4963030;28;20109;-32
2022/08/20 03:48:31;;;;;;;2.58;1.00;;;;;;;-148.56;100.00;61375.16;4965549;28;20033;-30
2022/08/20 03:50:59;;;;;;;1.13;0.80;;;;;;;-148.56;100.00;61375.16;4967284;28;20030;-31
2022/08/20 03:53:25;;;;;;;2.28;0.90;;;;;;;-148.56;100.00;61375.16;4964722;28;21977;-33
2022/08/20 03:55:53;;;;;;;1.13;0.80;;;;;;;-148.56;100.00;61375.16;4953863;28;20092;-28
2022/08/20 03:58:18;;;;;;;1.08;0.70;;;;;;;-148.56;100.00;61375.16;4958708;28;20023;-33
2022/08/20 04:00:46;;;;;;;0.73;0.50;;;;;;;-148.56;100.00;61375.16;4961004;28;20398;-31
2022/08/20 04:03:12;;;;;;;1.00;0.82;;;;;;;-148.56;100.00;61375.16;4963034;28;20038;-30
2022/08/20 04:05:39;;;;;;;1.17;0.80;;;;;;;-148.56;100.00;61375.16;4964037;28;20037;-31
2022/08/20 04:08:25;;;;;;;1.15;0.88;;;;;;;-148.56;100.00;61375.16;4966843;28;20066;-30
2022/08/20 04:10:51;;;;;;;1.00;0.70;;;;;;;-148.56;100.00;61375.16;4962600;28;20061;-29
2022/08/20 04:13:18;;;;;;;1.00;0.70;;;;;;;-148.56;100.00;61375.16;4956817;28;20097;-32
2022/08/20 04:15:44;;;;;;;1.73;1.00;;;;;;;-148.56;100.00;61375.16;4962704;28;20122;-31
2022/08/20 04:18:09;;;;;;;0.77;0.77;;;;;;;-148.56;100.00;61375.16;4965936;28;20053;-29
2022/08/20 04:20:36;;;;;;;2.00;0.77;;;;;;;-148.56;100.00;61375.16;4956336;28;20034;-33
2022/08/20 04:23:02;;;;;;;2.03;0.88;;;;;;;-148.56;100.00;61375.16;4959443;28;20125;-31
2022/08/20 04:25:30;;;;;;;1.33;1.00;;;;;;;-148.56;100.00;61375.16;4962467;28;20479;-31
2022/08/20 04:27:57;;;;;;;1.77;0.80;;;;;;;-148.56;100.00;61375.16;4978784;28;20030;-30
2022/08/20 04:30:23;;;;;;;1.10;0.80;;;;;;;-148.56;100.00;61375.16;4961989;28;20022;-30
2022/08/20 04:32:48;;;;;;;1.15;1.00;;;;;;;-148.56;100.00;61375.16;4966847;28;20030;-33
2022/08/20 04:35:16;;;;;;;1.35;0.90;;;;;;;-148.56;100.00;61375.16;4964593;28;20577;-29
2022/08/20 04:37:41;;;;;;;2.53;0.98;;;;;;;-148.56;100.00;61375.16;4958604;28;20038;-29
2022/08/20 04:42:53;;;;;;;1.48;0.90;;;;;;;-148.56;100.00;61375.16;4960754;28;20049;-30
2022/08/20 04:45:20;;;;;;;1.25;0.88;;;;;;;-148.56;100.00;61375.16;4963291;28;20030;-30
2022/08/20 04:47:46;;;;;;;1.00;0.70;;;;;;;-148.56;100.00;61375.16;4964152;28;20034;-33
2022/08/20 04:50:12;;;;;;;2.70;0.82;;;;;;;-148.56;100.00;61375.16;4963681;28;20034;-33
2022/08/20 04:52:37;;;;;;;1.02;0.77;;;;;;;-148.56;100.00;61375.16;4968109;28;20805;-28
2022/08/20 04:55:04;;;;;;;1.42;0.95;;;;;;;-148.56;100.00;61375.16;4964996;28;20113;-29
2022/08/20 04:57:29;;;;;;;1.00;0.95;;;;;;;-148.56;100.00;61375.16;4963189;28;20058;-30
2022/08/20 04:59:55;;;;;;;1.48;0.70;;;;;;;-148.56;100.00;61375.16;4965523;28;20039;-34
2022/08/20 05:02:20;;;;;;;1.10;0.80;;;;;;;-148.56;100.00;61375.16;4967568;28;20030;-30
2022/08/20 05:04:46;;;;;;;1.65;0.95;;;;;;;-148.56;100.00;61375.16;4954309;28;20034;-34
2022/08/20 05:07:12;;;;;;;1.17;1.08;;;;;;;-148.56;100.00;61375.16;4961358;28;20026;-36
2022/08/20 05:09:38;;;;;;;1.15;1.02;;;;;;;-148.56;100.00;61375.16;4963984;28;20387;-30
2022/08/20 05:12:03;;;;;;;0.70;0.70;;;;;;;-148.56;100.00;61375.16;4962749;28;20042;-31
2022/08/20 05:14:30;;;;;;;1.20;1.00;;;;;;;-148.56;100.00;61375.16;4963943;28;20023;-31
2022/08/20 05:16:56;;;;;;;0.93;0.88;;;;;;;-148.56;100.00;61375.16;4960008;28;20039;-31
2022/08/20 05:19:21;;;;;;;1.08;0.90;;;;;;;-148.56;100.00;61375.16;4955682;28;20678;-31
2022/08/20 05:21:47;;;;;;;1.23;1.05;;;;;;;-148.56;100.00;61375.16;4959880;28;20034;-31
2022/08/20 05:24:13;;;;;;;1.08;0.98;;;;;;;-148.56;100.00;61375.16;4964938;28;20623;-31
2022/08/20 05:26:38;;;;;;;0.85;0.75;;;;;;;-148.56;100.00;61375.16;4961440;28;20027;-33
2022/08/20 05:29:04;;;;;;;1.00;0.90;;;;;;;-148.56;100.00;61375.16;4964405;28;20034;-29
2022/08/20 05:31:31;;;;;;;1.20;1.10;;;;;;;-148.56;100.00;61375.16;4962040;28;20749;-33
2022/08/20 05:33:57;;;;;;;0.80;0.80;;;;;;;-148.56;100.00;61375.16;4961168;28;20026;-33
2022/08/20 05:36:22;;;;;;;1.63;0.90;;;;;;;-148.56;100.00;61375.16;4958892;28;22259;-34
2022/08/20 05:38:48;;;;;;;1.27;1.00;;;;;;;-148.56;100.00;61375.16;4956330;28;20035;-33
2022/08/20 05:41:13;;;;;;;0.98;0.90;;;;;;;-148.56;100.00;61375.16;4964991;28;20034;-30
2022/08/20 05:43:39;;;;;;;1.48;0.90;;;;;;;-148.56;100.00;61375.16;4957071;28;20522;-33
2022/08/20 05:46:04;;;;;;;1.20;0.95;;;;;;;-148.56;100.00;61375.16;4958618;28;20035;-31
2022/08/20 05:48:30;;;;;;;1.58;1.02;;;;;;;-148.56;100.00;61375.16;4962264;28;20065;-28
2022/08/20 05:50:55;;;;;;;1.58;0.93;;;;;;;-148.56;100.00;61375.16;4963721;28;20042;-31
2022/08/20 05:53:21;;;;;;;3.17;1.02;;;;;;;-148.56;100.00;61375.16;4960580;28;20034;-31
2022/08/20 05:55:48;;;;;;;1.33;1.00;;;;;;;-148.56;100.00;61375.16;4967953;28;20037;-36
2022/08/20 05:58:22;;;;;;;1.00;0.80;;;;;;;-148.56;100.00;61375.16;4965052;28;20101;-33
2022/08/20 06:00:48;;;;;;;0.93;0.90;;;;;;;-148.56;100.00;61375.16;4963955;28;20030;-34
2022/08/20 06:05:57;;;;;;;0.98;0.80;;;;;;;-148.56;100.00;61375.16;4949320;28;20044;-30
2022/08/20 06:08:23;;;;;;;1.10;1.00;;;;;;;-148.56;100.00;61375.16;4962619;28;20030;-35
2022/08/20 06:10:49;;;;;;;1.05;0.95;;;;;;;-148.56;100.00;61375.16;4955206;28;20026;-31
2022/08/20 06:13:14;;;;;;;1.70;0.95;;;;;;;-148.56;100.00;61375.16;4959264;28;20060;-29
2022/08/20 06:15:39;;;;;;;1.10;0.88;;;;;;;-148.56;100.00;61375.16;4952469;28;20999;-30
2022/08/20 06:18:06;;;;;;;1.02;0.90;;;;;;;-148.56;100.00;61375.16;4958066;28;20026;-29
2022/08/20 06:20:32;;;;;;;0.95;0.88;;;;;;;-148.56;100.00;61375.16;4961406;28;20687;-34
2022/08/20 06:22:57;;;;;;;1.55;1.10;;;;;;;-148.56;100.00;61375.16;4966528;28;20514;-30
2022/08/20 06:25:23;;;;;;;1.27;1.13;;;;;;;-148.56;100.00;61375.16;4964312;28;20030;-31
2022/08/20 06:27:48;;;;;;;1.13;1.02;;;;;;;-148.56;100.00;61375.16;4961765;28;20457;-31
2022/08/20 06:30:14;;;;;;;1.20;1.10;;;;;;;-148.56;100.00;61375.16;4950325;28;20038;-33
2022/08/20 06:32:40;;;;;;;1.70;1.15;;;;;;;-148.56;100.00;61375.16;4962467;28;20060;-34
2022/08/20 06:35:06;;;;;;;1.30;1.08;;;;;;;-148.56;100.00;61375.16;4965491;28;20625;-32
2022/08/20 06:37:35;;;;;;;1.48;1.08;;;;;;;-148.56;100.00;61375.16;4959865;28;20037;-32
2022/08/20 06:40:15;;;;;;;1.20;1.10;;;;;;;-148.56;100.00;61375.16;4963574;28;20045;-33
2022/08/20 06:42:42;;;;;;;1.20;1.10;;;;;;;-148.56;100.00;61375.16;4965443;28;20030;-32
2022/08/20 06:45:09;;;;;;;1.77;1.45;;;;;;;-148.56;100.00;61375.16;4951710;28;20030;-33
2022/08/20 06:47:37;;;;;;;2.10;1.10;;;;;;;-148.56;100.00;61375.16;4963746;28;20121;-32
2022/08/20 06:50:03;;;;;;;2.58;1.00;;;;;;;-148.56;100.00;61375.16;4963417;28;20030;-31
2022/08/20 06:52:28;;;;;;;8.70;1.60;;;;;;;-148.56;100.00;61375.16;4940414;28;20093;-32
2022/08/20 06:54:54;;;;;;;2.80;1.77;;;;;;;-148.56;100.00;61375.16;4948391;28;20042;-33
2022/08/20 06:57:19;;;;;;;2.35;2.15;;;;;;;-148.56;100.00;61375.16;4960166;28;20045;-35
2022/08/20 06:59:44;;;;;;;4.47;2.33;;;;;;;-148.56;100.00;61375.16;4955727;28;20022;-31
2022/08/20 07:02:10;;;;;;;6.60;2.47;;;;;;;-148.56;100.00;61375.16;4954479;28;23364;-31
2022/08/20 07:04:36;;;;;;;3.38;2.05;;;;;;;-148.56;100.00;61375.16;4956017;28;20041;-32
2022/08/20 07:07:01;;;;;;;3.85;2.40;;;;;;;-148.56;100.00;61375.16;4958500;28;20034;-30
2022/08/20 07:09:27;;;;;;;5.97;2.33;;;;;;;-148.56;100.00;61375.16;4961625;28;20088;-27
2022/08/20 07:11:52;;;;;;;3.72;2.40;;;;;;;-148.56;100.00;61375.16;4957114;28;20148;-32
2022/08/20 07:14:18;;;;;;;5.03;2.20;;;;;;;-148.56;100.00;61375.16;4957753;28;20045;-28
2022/08/20 07:16:45;;;;;;;4.07;2.50;;;;;;;-148.56;100.00;61375.16;4954576;28;20110;-33
2022/08/20 07:19:11;;;;;;;5.50;2.72;;;;;;;-148.56;100.00;61375.16;4957472;28;20100;-31
2022/08/20 07:21:36;;;;;;;3.75;2.22;;;;;;;-148.56;100.00;61375.16;4958109;28;20029;-32
2022/08/20 07:24:02;;;;;;;3.70;2.45;;;;;;;-148.56;100.00;61375.16;4960278;28;20041;-28
2022/08/20 07:26:28;;;;;;;3.17;2.33;;;;;;;-148.56;100.00;61375.16;4954991;28;20046;-30
2022/08/20 07:28:53;;;;;;;3.08;2.10;;;;;;;-148.56;100.00;61375.16;4961260;28;20030;-32
2022/08/20 07:34:03;;;;;;;4.25;2.28;;;;;;;-148.56;100.00;61375.16;4952769;28;20668;-27
2022/08/20 07:36:28;;;;;;;3.28;2.33;;;;;;;-148.56;100.00;61375.16;4960981;28;20034;-31
2022/08/20 07:38:53;;;;;;;2.22;2.00;;;;;;;-148.56;100.00;61375.16;4957325;28;20030;-28
2022/08/20 07:41:19;;;;;;;3.58;1.90;;;;;;;-148.56;100.00;61375.16;4957763;28;20625;-31
2022/08/20 07:43:45;;;;;;;3.33;2.28;;;;;;;-148.56;100.00;61375.16;4958294;28;20514;-32
2022/08/20 07:46:10;;;;;;;6.68;2.20;;;;;;;-148.56;100.00;61375.16;4956865;28;20030;-34
2022/08/20 07:48:38;;;;;;;3.53;2.20;;;;;;;-148.56;100.00;61375.16;4959649;28;20022;-30
2022/08/20 07:51:04;;;;;;;3.45;2.20;;;;;;;-148.56;100.00;61375.16;4958859;28;20029;-30
2022/08/20 07:53:32;;;;;;;3.45;2.00;;;;;;;-148.56;100.00;61375.16;4958202;28;20030;-31
2022/08/20 07:55:57;;;;;;;4.88;2.25;;;;;;;-148.56;100.00;61375.16;4956828;28;20031;-31
2022/08/20 07:58:23;;;;;;;3.35;2.20;;;;;;;-148.56;100.00;61375.16;4955343;28;20041;-29
2022/08/20 08:00:49;;;;;;;3.17;2.25;;;;;;;-148.56;100.00;61375.16;4957929;28;20026;-30
2022/08/20 08:03:14;;;;;;;2.30;2.10;;;;;;;-148.56;100.00;61375.16;4961180;28;20064;-29
2022/08/20 08:05:42;;;;;;;3.17;2.03;;;;;;;-148.56;100.00;61375.16;4959468;28;20031;-32
2022/08/20 08:08:08;;;;;;;3.47;2.15;;;;;;;-148.56;100.00;61375.16;4960017;28;20121;-28
2022/08/20 08:10:35;;;;;;;3.90;2.15;;;;;;;-148.56;100.00;61375.16;4958214;28;20035;-31
2022/08/20 08:13:01;;;;;;;4.00;2.22;;;;;;;-148.56;100.00;61375.16;4961324;28;20038;-28
2022/08/20 08:15:30;;;;;;;5.15;2.13;;;;;;;-148.56;100.00;61375.16;4958991;28;20235;-30
2022/08/20 08:17:56;;;;;;;2.95;2.40;;;;;;;-148.56;100.00;61375.16;4941683;28;20038;-30
2022/08/20 08:20:22;;;;;;;4.88;2.42;;;;;;;-148.56;100.00;61375.16;4961879;28;20030;-31
2022/08/20 08:22:47;;;;;;;3.08;2.05;;;;;;;-148.56;100.00;61375.16;4961944;28;20029;-28
2022/08/20 08:25:13;;;;;;;2.58;2.22;;;;;;;-148.56;100.00;61375.16;4948940;28;20555;-29
2022/08/20 08:27:39;;;;;;;3.05;2.30;;;;;;;-148.56;100.00;61375.16;4966879;28;20442;-30
2022/08/20 08:30:05;;;;;;;4.68;1.90;;;;;;;-148.56;100.00;61375.16;4962714;28;20042;-29
2022/08/20 08:32:31;;;;;;;2.45;1.83;;;;;;;-148.56;100.00;61375.16;4971311;28;20030;-28
2022/08/20 08:34:57;;;;;;;3.97;2.20;;;;;;;-148.56;100.00;61375.16;4956010;28;20403;-33
2022/08/20 08:37:22;;;;;;;3.13;2.15;;;;;;;-148.56;100.00;61375.16;4957542;28;20039;-31
2022/08/20 08:39:48;;;;;;;3.03;2.10;;;;;;;-148.56;100.00;61375.16;4958728;28;20364;-30
2022/08/20 08:42:26;;;;;;;4.30;2.20;;;;;;;-148.56;100.00;61375.16;4969193;28;20038;-28
2022/08/20 08:44:52;;;;;;;3.17;2.00;;;;;;;-148.56;100.00;61375.16;4953577;28;20030;-26
2022/08/20 08:47:24;;;;;;;3.17;2.20;;;;;;;-148.56;100.00;61375.16;4954109;28;20041;-30
2022/08/20 08:49:49;;;;;;;3.72;2.10;;;;;;;-148.56;100.00;61375.16;4955066;28;20053;-31
2022/08/20 08:52:21;;;;;;;2.83;2.00;;;;;;;-148.56;100.00;61375.16;4950091;28;20030;-28
2022/08/20 08:54:50;;;;;;;3.38;1.90;;;;;;;-148.56;100.00;61375.16;4949598;28;20049;-28
2022/08/20 08:57:16;;;;;;;7.35;2.28;;;;;;;-148.56;100.00;61375.16;4954370;28;20026;-31
2022/08/20 08:59:43;;;;;;;2.17;1.98;;;;;;;-148.56;100.00;61375.16;4962498;28;20574;-30
2022/08/20 09:02:12;;;;;;;3.50;1.85;;;;;;;-148.56;100.00;61375.16;4957355;28;20523;-27
2022/08/20 09:04:38;;;;;;;1.92;1.70;;;;;;;-148.56;100.00;61375.16;4936099;28;20034;-28
2022/08/20 09:07:06;;;;;;;4.25;2.00;;;;;;;-148.56;100.00;61375.16;4957695;28;20061;-30
2022/08/20 09:09:35;;;;;;;1.88;1.67;;;;;;;-148.56;100.00;61375.16;4949941;28;20027;-28
2022/08/20 09:12:04;;;;;;;2.15;1.70;;;;;;;-148.56;100.00;61375.16;4950770;28;20034;-29
2022/08/20 09:14:29;;;;;;;1.42;1.33;;;;;;;-148.56;100.00;61375.16;4958595;28;20049;-28
2022/08/20 09:16:54;;;;;;;2.45;1.83;;;;;;;-148.56;100.00;61375.16;4953015;28;20671;-30
2022/08/20 09:19:20;;;;;;;3.85;1.60;;;;;;;-148.56;100.00;61375.16;4949279;28;20030;-26
2022/08/20 09:21:45;;;;;;;2.97;1.77;;;;;;;-148.56;100.00;61375.16;4956687;28;20090;-31
2022/08/20 09:24:11;;;;;;;3.58;1.80;;;;;;;-148.56;100.00;61375.16;4959482;28;20058;-30
2022/08/20 09:26:36;;;;;;;5.60;2.05;;;;;;;-148.56;100.00;61375.16;4954509;28;20069;-30
2022/08/20 09:29:01;;;;;;;7.22;2.80;;;;;;;-148.56;100.00;61375.16;4957001;28;20717;-30
2022/08/20 09:31:27;;;;;;;7.30;2.47;;;;;;;-148.56;100.00;61375.16;4955351;28;20034;-29
2022/08/20 09:33:52;;;;;;;8.10;2.40;;;;;;;-148.56;100.00;61375.16;4956948;28;20030;-34
2022/08/20 09:36:18;;;;;;;7.70;3.08;;;;;;;-148.56;100.00;61375.16;4956987;28;20041;-31
2022/08/20 09:38:43;;;;;;;8.32;3.28;;;;;;;-148.56;100.00;61375.16;4958929;28;20544;-31
2022/08/20 09:41:09;;;;;;;7.47;3.30;;;;;;;-148.56;100.00;61375.16;4954363;28;20438;-30
2022/08/20 09:43:34;;;;;;;7.75;3.20;;;;;;;-148.56;100.00;61375.16;4957920;28;20070;-30
2022/08/20 09:45:59;;;;;;;6.88;2.90;;;;;;;-148.56;100.00;61375.16;4960467;28;20462;-32
2022/08/20 09:48:25;;;;;;;10.65;2.92;;;;;;;-148.56;100.00;61375.16;4960788;28;20049;-32
2022/08/20 09:50:51;;;;;;;11.18;2.90;;;;;;;-148.56;100.00;61375.16;4960687;28;20054;-32
2022/08/20 09:53:17;;;;;;;8.70;2.67;;;;;;;-148.56;100.00;61375.16;4955060;28;20996;-28
2022/08/20 09:55:44;;;;;;;12.02;3.15;;;;;;;-148.56;100.00;61375.16;4957057;28;20030;-30
2022/08/20 09:58:25;;;;;;;7.63;2.60;;;;;;;-148.56;100.00;61375.16;4958707;28;20026;-30
2022/08/20 10:00:50;;;;;;;7.13;2.70;;;;;;;-148.56;100.00;61375.16;4960696;28;20657;-34
2022/08/20 10:03:16;;;;;;;7.28;2.70;;;;;;;-148.56;100.00;61375.16;4954627;28;20049;-32
2022/08/20 10:05:41;;;;;;;10.60;2.22;;;;;;;-148.56;100.00;61375.16;4957713;28;20066;-32
2022/08/20 10:08:07;;;;;;;5.65;2.33;;;;;;;-148.56;100.00;61375.16;4961427;28;20043;-31
2022/08/20 10:10:33;;;;;;;4.40;2.03;;;;;;;-148.56;100.00;61375.16;4964599;28;20577;-27
2022/08/20 10:12:58;;;;;;;10.32;2.28;;;;;;;-148.56;100.00;61375.16;4962665;28;20022;-31
2022/08/20 10:15:23;;;;;;;2.97;2.00;;;;;;;-148.56;100.00;61375.16;4957580;28;20026;-34
2022/08/20 10:17:49;;;;;;;4.57;1.55;;;;;;;-148.56;100.00;61375.16;4963133;28;20717;-29
2022/08/20 10:20:14;;;;;;;2.75;1.55;;;;;;;-148.56;100.00;61375.16;4959991;28;20045;-34
2022/08/20 10:22:40;;;;;;;3.60;1.55;;;;;;;-148.56;100.00;61375.16;4961145;28;20137;-32
2022/08/20 10:25:06;;;;;;;3.83;1.42;;;;;;;-148.56;100.00;61375.16;4963217;28;20037;-32
2022/08/20 10:27:31;;;;;;;34.60;2.88;;;;;;;-148.56;100.00;61375.16;4963708;28;20030;-33
2022/08/20 10:46:27;;;;;;;1.60;0.95;;;;;;;-148.56;100.00;61375.16;4922888;28;20104;-61
2022/08/20 10:58:36;;;;;;;;;;;;;;;-148.56;100.00;61375.16;4913415;28;20788;-56
2022/08/20 11:01:02;;;;;;;3.65;0.90;;;;;;;-148.56;100.00;61375.16;4935481;28;19922;-59
2022/08/20 11:03:27;;;;;;;3.88;0.90;;;;;;;-148.56;100.00;61375.16;4887516;28;20547;-60
2022/08/20 11:05:52;;;;;;;0.88;0.75;;;;;;;-148.56;100.00;61375.16;4891891;28;20035;-57
2022/08/20 11:08:18;;;;;;;0.82;0.60;;;;;;;-148.56;100.00;61375.16;4893256;28;20055;-57
2022/08/20 11:10:43;;;;;;;1.10;0.73;;;;;;;-148.56;100.00;61375.16;4888238;28;20034;-58
2022/08/20 11:13:11;;;;;;;1.48;0.85;;;;;;;-148.56;100.00;61375.16;4890299;28;20030;-56
2022/08/20 11:15:39;;;;;;;0.73;0.52;;;;;;;-148.56;100.00;61375.16;4882766;28;20058;-57
2022/08/20 11:18:04;;;;;;;1.85;0.63;;;;;;;-148.56;100.00;61375.16;4884012;28;20076;-60
2022/08/20 11:20:30;;;;;;;1.80;0.68;;;;;;;-148.56;100.00;61375.16;4926143;28;20039;-56
2022/08/20 11:22:56;;;;;;;0.82;0.63;;;;;;;-148.56;100.00;61375.16;4940340;28;20031;-57
2022/08/20 11:25:21;;;;;;;0.68;0.52;;;;;;;-148.56;100.00;61375.16;4936134;28;20209;-57
2022/08/20 11:27:48;;;;;;;1.10;0.60;;;;;;;-148.56;100.00;61375.16;4935725;28;20117;-55
2022/08/20 11:30:17;;;;;;;1.30;0.60;;;;;;;-148.56;100.00;61375.16;4943906;28;20551;-58
2022/08/20 11:32:42;;;;;;;0.47;0.47;;;;;;;-148.56;100.00;61375.16;4937778;28;20105;-57
2022/08/20 11:35:08;;;;;;;0.75;0.70;;;;;;;-148.56;100.00;61375.16;4937408;28;20026;-57
2022/08/20 11:37:33;;;;;;;2.10;0.70;;;;;;;-148.56;100.00;61375.16;4933234;28;20113;-56
2022/08/20 11:39:58;;;;;;;0.93;0.68;;;;;;;-148.56;100.00;61375.16;4927783;28;20034;-59